sensor_id;sensor_type;location;lat;lon;timestamp;P1;durP1;ratioP1;P2;durP2;ratioP2
8978;SDS011;4524;51.364;5.448;2022-09-09T00:02:18;3.13;;;1.60;;
8978;SDS011;4524;51.364;5.448;2022-09-09T00:04:49;2.53;;;1.57;;
8978;SDS011;4524;51.364;5.448;2022-09-09T00:07:32;1.83;;;1.60;;
8978;SDS011;4524;51.364;5.448;2022-09-09T00:10:13;1.53;;;1.43;;
8978;SDS011;4524;51.364;5.448;2022-09-09T00:12:47;4.37;;;1.63;;
8978;SDS011;4524;51.364;5.448;2022-09-09T00:15:23;2.37;;;1.30;;
8978;SDS011;4524;51.364;5.448;2022-09-09T00:17:56;2.40;;;1.70;;
8978;SDS011;4524;51.364;5.448;2022-09-09T00:20:29;3.27;;;2.03;;
8978;SDS011;4524;51.364;5.448;2022-09-09T00:23:04;4.67;;;1.73;;
8978;SDS011;4524;51.364;5.448;2022-09-09T00:25:40;2.00;;;1.57;;
8978;SDS011;4524;51.364;5.448;2022-09-09T00:28:18;2.37;;;1.83;;
8978;SDS011;4524;51.364;5.448;2022-09-09T00:30:47;2.00;;;1.80;;
8978;SDS011;4524;51.364;5.448;2022-09-09T00:33:16;2.70;;;1.43;;
8978;SDS011;4524;51.364;5.448;2022-09-09T00:35:49;1.77;;;1.60;;
8978;SDS011;4524;51.364;5.448;2022-09-09T00:38:20;2.07;;;1.50;;
8978;SDS011;4524;51.364;5.448;2022-09-09T00:40:55;1.70;;;1.60;;
8978;SDS011;4524;51.364;5.448;2022-09-09T00:43:31;2.70;;;1.80;;
8978;SDS011;4524;51.364;5.448;2022-09-09T00:46:14;1.87;;;1.50;;
8978;SDS011;4524;51.364;5.448;2022-09-09T00:48:57;3.30;;;2.00;;
8978;SDS011;4524;51.364;5.448;2022-09-09T00:51:35;3.47;;;1.80;;
8978;SDS011;4524;51.364;5.448;2022-09-09T00:54:18;3.97;;;1.70;;
8978;SDS011;4524;51.364;5.448;2022-09-09T00:57:01;3.20;;;1.90;;
8978;SDS011;4524;51.364;5.448;2022-09-09T00:59:40;5.30;;;1.53;;
8978;SDS011;4524;51.364;5.448;2022-09-09T01:02:16;2.20;;;1.60;;
8978;SDS011;4524;51.364;5.448;2022-09-09T01:04:53;3.43;;;1.80;;
8978;SDS011;4524;51.364;5.448;2022-09-09T01:07:21;1.87;;;1.47;;
8978;SDS011;4524;51.364;5.448;2022-09-09T01:09:55;2.27;;;1.50;;
8978;SDS011;4524;51.364;5.448;2022-09-09T01:12:26;2.03;;;1.50;;
8978;SDS011;4524;51.364;5.448;2022-09-09T01:15:03;3.43;;;1.60;;
8978;SDS011;4524;51.364;5.448;2022-09-09T01:17:48;3.93;;;1.70;;
8978;SDS011;4524;51.364;5.448;2022-09-09T01:20:20;3.03;;;1.60;;
8978;SDS011;4524;51.364;5.448;2022-09-09T01:26:09;3.20;;;1.63;;
8978;SDS011;4524;51.364;5.448;2022-09-09T01:28:45;2.90;;;1.40;;
8978;SDS011;4524;51.364;5.448;2022-09-09T01:31:17;3.57;;;1.60;;
8978;SDS011;4524;51.364;5.448;2022-09-09T01:33:47;2.90;;;1.50;;
8978;SDS011;4524;51.364;5.448;2022-09-09T01:36:19;5.20;;;1.67;;
8978;SDS011;4524;51.364;5.448;2022-09-09T01:38:52;4.47;;;1.63;;
8978;SDS011;4524;51.364;5.448;2022-09-09T01:41:22;3.00;;;1.70;;
8978;SDS011;4524;51.364;5.448;2022-09-09T01:44:00;2.43;;;1.57;;
8978;SDS011;4524;51.364;5.448;2022-09-09T01:46:31;3.73;;;1.50;;
8978;SDS011;4524;51.364;5.448;2022-09-09T01:49:00;2.13;;;1.30;;
8978;SDS011;4524;51.364;5.448;2022-09-09T01:51:29;3.23;;;1.50;;
8978;SDS011;4524;51.364;5.448;2022-09-09T01:54:01;2.27;;;1.47;;
8978;SDS011;4524;51.364;5.448;2022-09-09T01:56:35;3.53;;;1.50;;
8978;SDS011;4524;51.364;5.448;2022-09-09T01:59:14;2.50;;;1.50;;
8978;SDS011;4524;51.364;5.448;2022-09-09T02:02:07;5.03;;;1.60;;
8978;SDS011;4524;51.364;5.448;2022-09-09T02:04:45;3.67;;;1.83;;
8978;SDS011;4524;51.364;5.448;2022-09-09T02:07:24;4.10;;;1.70;;
8978;SDS011;4524;51.364;5.448;2022-09-09T02:10:01;3.73;;;1.43;;
8978;SDS011;4524;51.364;5.448;2022-09-09T02:12:47;4.17;;;1.70;;
8978;SDS011;4524;51.364;5.448;2022-09-09T02:15:20;3.47;;;1.33;;
8978;SDS011;4524;51.364;5.448;2022-09-09T02:17:54;4.00;;;1.40;;
8978;SDS011;4524;51.364;5.448;2022-09-09T02:20:25;3.57;;;1.60;;
8978;SDS011;4524;51.364;5.448;2022-09-09T02:23:00;3.20;;;1.60;;
8978;SDS011;4524;51.364;5.448;2022-09-09T02:25:29;5.93;;;2.13;;
8978;SDS011;4524;51.364;5.448;2022-09-09T02:28:08;2.60;;;1.40;;
8978;SDS011;4524;51.364;5.448;2022-09-09T02:30:38;4.40;;;1.67;;
8978;SDS011;4524;51.364;5.448;2022-09-09T02:33:08;3.13;;;1.70;;
8978;SDS011;4524;51.364;5.448;2022-09-09T02:35:45;2.70;;;1.50;;
8978;SDS011;4524;51.364;5.448;2022-09-09T02:38:18;4.87;;;1.70;;
8978;SDS011;4524;51.364;5.448;2022-09-09T02:40:56;5.70;;;1.80;;
8978;SDS011;4524;51.364;5.448;2022-09-09T02:43:30;4.00;;;1.73;;
8978;SDS011;4524;51.364;5.448;2022-09-09T02:46:02;3.53;;;1.80;;
8978;SDS011;4524;51.364;5.448;2022-09-09T02:48:36;5.40;;;2.07;;
8978;SDS011;4524;51.364;5.448;2022-09-09T02:51:14;2.13;;;1.63;;
8978;SDS011;4524;51.364;5.448;2022-09-09T02:53:51;3.13;;;1.67;;
8978;SDS011;4524;51.364;5.448;2022-09-09T02:56:28;5.13;;;1.80;;
8978;SDS011;4524;51.364;5.448;2022-09-09T02:59:04;2.93;;;1.83;;
8978;SDS011;4524;51.364;5.448;2022-09-09T03:01:34;4.73;;;1.70;;
8978;SDS011;4524;51.364;5.448;2022-09-09T03:04:02;6.93;;;1.53;;
8978;SDS011;4524;51.364;5.448;2022-09-09T03:06:31;2.70;;;1.70;;
8978;SDS011;4524;51.364;5.448;2022-09-09T03:09:08;4.33;;;1.70;;
8978;SDS011;4524;51.364;5.448;2022-09-09T03:11:37;3.20;;;1.80;;
8978;SDS011;4524;51.364;5.448;2022-09-09T03:14:07;5.37;;;1.90;;
8978;SDS011;4524;51.364;5.448;2022-09-09T03:16:37;6.87;;;1.80;;
8978;SDS011;4524;51.364;5.448;2022-09-09T03:19:05;5.10;;;2.20;;
8978;SDS011;4524;51.364;5.448;2022-09-09T03:21:33;4.40;;;1.90;;
8978;SDS011;4524;51.364;5.448;2022-09-09T03:24:02;2.70;;;1.80;;
8978;SDS011;4524;51.364;5.448;2022-09-09T03:26:30;3.20;;;1.80;;
8978;SDS011;4524;51.364;5.448;2022-09-09T03:28:59;3.77;;;1.90;;
8978;SDS011;4524;51.364;5.448;2022-09-09T03:31:30;5.70;;;2.00;;
8978;SDS011;4524;51.364;5.448;2022-09-09T03:33:58;4.10;;;2.00;;
8978;SDS011;4524;51.364;5.448;2022-09-09T03:36:29;4.47;;;2.00;;
8978;SDS011;4524;51.364;5.448;2022-09-09T03:38:58;4.17;;;1.80;;
8978;SDS011;4524;51.364;5.448;2022-09-09T03:41:28;6.33;;;1.77;;
8978;SDS011;4524;51.364;5.448;2022-09-09T03:43:59;6.63;;;2.20;;
8978;SDS011;4524;51.364;5.448;2022-09-09T03:46:33;5.53;;;2.03;;
8978;SDS011;4524;51.364;5.448;2022-09-09T03:49:01;4.47;;;2.10;;
8978;SDS011;4524;51.364;5.448;2022-09-09T03:51:30;3.63;;;2.10;;
8978;SDS011;4524;51.364;5.448;2022-09-09T03:54:04;5.67;;;2.00;;
8978;SDS011;4524;51.364;5.448;2022-09-09T03:56:34;6.80;;;2.23;;
8978;SDS011;4524;51.364;5.448;2022-09-09T03:59:03;4.07;;;1.90;;
8978;SDS011;4524;51.364;5.448;2022-09-09T04:01:32;2.40;;;1.50;;
8978;SDS011;4524;51.364;5.448;2022-09-09T04:04:00;4.23;;;1.87;;
8978;SDS011;4524;51.364;5.448;2022-09-09T04:06:29;3.10;;;1.73;;
8978;SDS011;4524;51.364;5.448;2022-09-09T04:08:57;1.97;;;1.33;;
8978;SDS011;4524;51.364;5.448;2022-09-09T04:11:25;5.00;;;2.00;;
8978;SDS011;4524;51.364;5.448;2022-09-09T04:13:55;3.77;;;1.50;;
8978;SDS011;4524;51.364;5.448;2022-09-09T04:16:23;5.57;;;2.03;;
8978;SDS011;4524;51.364;5.448;2022-09-09T04:18:53;4.83;;;1.73;;
8978;SDS011;4524;51.364;5.448;2022-09-09T04:21:22;3.47;;;1.57;;
8978;SDS011;4524;51.364;5.448;2022-09-09T04:23:50;4.87;;;1.63;;
8978;SDS011;4524;51.364;5.448;2022-09-09T04:26:18;4.67;;;1.63;;
8978;SDS011;4524;51.364;5.448;2022-09-09T04:28:46;4.63;;;1.40;;
8978;SDS011;4524;51.364;5.448;2022-09-09T04:31:17;5.93;;;1.70;;
8978;SDS011;4524;51.364;5.448;2022-09-09T04:33:49;4.60;;;2.00;;
8978;SDS011;4524;51.364;5.448;2022-09-09T04:36:18;7.50;;;1.90;;
8978;SDS011;4524;51.364;5.448;2022-09-09T04:38:49;4.93;;;1.63;;
8978;SDS011;4524;51.364;5.448;2022-09-09T04:41:17;5.20;;;1.80;;
8978;SDS011;4524;51.364;5.448;2022-09-09T04:43:48;4.23;;;1.70;;
8978;SDS011;4524;51.364;5.448;2022-09-09T04:46:16;2.83;;;1.60;;
8978;SDS011;4524;51.364;5.448;2022-09-09T04:48:46;3.67;;;1.60;;
8978;SDS011;4524;51.364;5.448;2022-09-09T04:51:16;5.47;;;1.40;;
8978;SDS011;4524;51.364;5.448;2022-09-09T04:53:47;4.93;;;1.80;;
8978;SDS011;4524;51.364;5.448;2022-09-09T04:56:17;6.10;;;2.20;;
8978;SDS011;4524;51.364;5.448;2022-09-09T04:58:51;6.30;;;2.30;;
8978;SDS011;4524;51.364;5.448;2022-09-09T05:01:22;5.83;;;2.07;;
8978;SDS011;4524;51.364;5.448;2022-09-09T05:03:52;4.03;;;1.50;;
8978;SDS011;4524;51.364;5.448;2022-09-09T05:06:22;4.90;;;1.60;;
8978;SDS011;4524;51.364;5.448;2022-09-09T05:08:55;2.83;;;1.60;;
8978;SDS011;4524;51.364;5.448;2022-09-09T05:11:27;5.17;;;1.87;;
8978;SDS011;4524;51.364;5.448;2022-09-09T05:14:06;3.07;;;1.60;;
8978;SDS011;4524;51.364;5.448;2022-09-09T05:16:35;4.17;;;1.67;;
8978;SDS011;4524;51.364;5.448;2022-09-09T05:19:03;5.53;;;1.53;;
8978;SDS011;4524;51.364;5.448;2022-09-09T05:21:42;6.40;;;1.67;;
8978;SDS011;4524;51.364;5.448;2022-09-09T05:24:12;5.57;;;1.80;;
8978;SDS011;4524;51.364;5.448;2022-09-09T05:26:41;4.47;;;1.83;;
8978;SDS011;4524;51.364;5.448;2022-09-09T05:29:09;6.97;;;1.80;;
8978;SDS011;4524;51.364;5.448;2022-09-09T05:31:37;5.60;;;1.67;;
8978;SDS011;4524;51.364;5.448;2022-09-09T05:34:11;3.87;;;1.63;;
8978;SDS011;4524;51.364;5.448;2022-09-09T05:36:39;3.20;;;1.53;;
8978;SDS011;4524;51.364;5.448;2022-09-09T05:39:07;5.07;;;1.90;;
8978;SDS011;4524;51.364;5.448;2022-09-09T05:41:36;6.13;;;2.07;;
8978;SDS011;4524;51.364;5.448;2022-09-09T05:44:04;5.47;;;2.10;;
8978;SDS011;4524;51.364;5.448;2022-09-09T05:46:36;7.77;;;1.70;;
8978;SDS011;4524;51.364;5.448;2022-09-09T05:49:05;4.27;;;1.93;;
8978;SDS011;4524;51.364;5.448;2022-09-09T05:51:35;3.77;;;1.67;;
8978;SDS011;4524;51.364;5.448;2022-09-09T05:54:08;5.37;;;1.80;;
8978;SDS011;4524;51.364;5.448;2022-09-09T05:56:42;4.07;;;1.50;;
8978;SDS011;4524;51.364;5.448;2022-09-09T05:59:16;6.00;;;1.57;;
8978;SDS011;4524;51.364;5.448;2022-09-09T06:01:44;4.73;;;1.80;;
8978;SDS011;4524;51.364;5.448;2022-09-09T06:04:19;5.77;;;2.07;;
8978;SDS011;4524;51.364;5.448;2022-09-09T06:06:50;5.37;;;1.83;;
8978;SDS011;4524;51.364;5.448;2022-09-09T06:09:20;5.60;;;1.80;;
8978;SDS011;4524;51.364;5.448;2022-09-09T06:11:50;5.70;;;1.93;;
8978;SDS011;4524;51.364;5.448;2022-09-09T06:14:20;7.20;;;1.70;;
8978;SDS011;4524;51.364;5.448;2022-09-09T06:16:49;8.17;;;2.23;;
8978;SDS011;4524;51.364;5.448;2022-09-09T06:19:22;6.53;;;1.90;;
8978;SDS011;4524;51.364;5.448;2022-09-09T06:21:55;6.73;;;1.83;;
8978;SDS011;4524;51.364;5.448;2022-09-09T06:24:23;8.10;;;2.13;;
8978;SDS011;4524;51.364;5.448;2022-09-09T06:26:53;7.47;;;2.20;;
8978;SDS011;4524;51.364;5.448;2022-09-09T06:29:25;8.07;;;2.30;;
8978;SDS011;4524;51.364;5.448;2022-09-09T06:31:53;7.03;;;1.50;;
8978;SDS011;4524;51.364;5.448;2022-09-09T06:34:24;7.07;;;2.13;;
8978;SDS011;4524;51.364;5.448;2022-09-09T06:36:55;4.97;;;1.63;;
8978;SDS011;4524;51.364;5.448;2022-09-09T06:39:24;7.47;;;2.13;;
8978;SDS011;4524;51.364;5.448;2022-09-09T06:41:55;8.53;;;2.67;;
8978;SDS011;4524;51.364;5.448;2022-09-09T06:44:53;9.07;;;2.70;;
8978;SDS011;4524;51.364;5.448;2022-09-09T06:47:35;9.07;;;2.77;;
8978;SDS011;4524;51.364;5.448;2022-09-09T06:50:03;7.20;;;2.80;;
8978;SDS011;4524;51.364;5.448;2022-09-09T06:52:33;5.43;;;2.30;;
8978;SDS011;4524;51.364;5.448;2022-09-09T06:55:02;9.43;;;2.67;;
8978;SDS011;4524;51.364;5.448;2022-09-09T06:57:34;8.07;;;3.40;;
8978;SDS011;4524;51.364;5.448;2022-09-09T07:00:14;8.40;;;2.70;;
8978;SDS011;4524;51.364;5.448;2022-09-09T07:02:43;8.00;;;2.60;;
8978;SDS011;4524;51.364;5.448;2022-09-09T07:05:11;6.00;;;2.43;;
8978;SDS011;4524;51.364;5.448;2022-09-09T07:07:43;6.80;;;2.50;;
8978;SDS011;4524;51.364;5.448;2022-09-09T07:10:13;7.10;;;2.37;;
8978;SDS011;4524;51.364;5.448;2022-09-09T07:12:42;7.37;;;2.60;;
8978;SDS011;4524;51.364;5.448;2022-09-09T07:15:11;7.37;;;2.30;;
8978;SDS011;4524;51.364;5.448;2022-09-09T07:17:43;7.83;;;2.23;;
8978;SDS011;4524;51.364;5.448;2022-09-09T07:20:11;7.90;;;2.60;;
8978;SDS011;4524;51.364;5.448;2022-09-09T07:22:40;6.47;;;2.17;;
8978;SDS011;4524;51.364;5.448;2022-09-09T07:25:09;7.60;;;2.70;;
8978;SDS011;4524;51.364;5.448;2022-09-09T07:27:37;7.17;;;2.30;;
8978;SDS011;4524;51.364;5.448;2022-09-09T07:30:08;10.70;;;2.10;;
8978;SDS011;4524;51.364;5.448;2022-09-09T07:32:46;8.10;;;2.53;;
8978;SDS011;4524;51.364;5.448;2022-09-09T07:35:14;8.50;;;2.43;;
8978;SDS011;4524;51.364;5.448;2022-09-09T07:37:42;8.67;;;2.30;;
8978;SDS011;4524;51.364;5.448;2022-09-09T07:40:16;8.10;;;2.60;;
8978;SDS011;4524;51.364;5.448;2022-09-09T07:42:46;9.07;;;2.40;;
8978;SDS011;4524;51.364;5.448;2022-09-09T07:45:15;7.50;;;2.60;;
8978;SDS011;4524;51.364;5.448;2022-09-09T07:47:43;5.97;;;2.40;;
8978;SDS011;4524;51.364;5.448;2022-09-09T07:50:11;9.53;;;2.73;;
8978;SDS011;4524;51.364;5.448;2022-09-09T07:52:39;6.83;;;2.10;;
8978;SDS011;4524;51.364;5.448;2022-09-09T07:55:07;6.13;;;2.27;;
8978;SDS011;4524;51.364;5.448;2022-09-09T07:57:36;7.20;;;2.27;;
8978;SDS011;4524;51.364;5.448;2022-09-09T08:00:04;7.87;;;2.40;;
8978;SDS011;4524;51.364;5.448;2022-09-09T08:02:41;5.83;;;2.10;;
8978;SDS011;4524;51.364;5.448;2022-09-09T08:05:10;5.13;;;2.03;;
8978;SDS011;4524;51.364;5.448;2022-09-09T08:07:39;6.03;;;2.00;;
8978;SDS011;4524;51.364;5.448;2022-09-09T08:10:07;5.97;;;2.00;;
8978;SDS011;4524;51.364;5.448;2022-09-09T08:12:37;4.93;;;2.13;;
8978;SDS011;4524;51.364;5.448;2022-09-09T08:15:21;8.37;;;2.70;;
8978;SDS011;4524;51.364;5.448;2022-09-09T08:17:50;8.27;;;3.17;;
8978;SDS011;4524;51.364;5.448;2022-09-09T08:20:18;10.37;;;3.07;;
8978;SDS011;4524;51.364;5.448;2022-09-09T08:22:46;8.80;;;2.63;;
8978;SDS011;4524;51.364;5.448;2022-09-09T08:25:16;9.07;;;2.43;;
8978;SDS011;4524;51.364;5.448;2022-09-09T08:27:43;10.27;;;2.67;;
8978;SDS011;4524;51.364;5.448;2022-09-09T08:30:12;11.07;;;2.77;;
8978;SDS011;4524;51.364;5.448;2022-09-09T08:32:40;9.37;;;2.50;;
8978;SDS011;4524;51.364;5.448;2022-09-09T08:35:13;7.40;;;2.57;;
8978;SDS011;4524;51.364;5.448;2022-09-09T08:37:41;5.50;;;2.27;;
8978;SDS011;4524;51.364;5.448;2022-09-09T08:40:09;7.93;;;2.77;;
8978;SDS011;4524;51.364;5.448;2022-09-09T08:42:48;6.90;;;2.60;;
8978;SDS011;4524;51.364;5.448;2022-09-09T08:45:20;7.43;;;2.43;;
8978;SDS011;4524;51.364;5.448;2022-09-09T08:48:08;10.00;;;2.33;;
8978;SDS011;4524;51.364;5.448;2022-09-09T08:50:44;6.90;;;2.17;;
8978;SDS011;4524;51.364;5.448;2022-09-09T08:53:21;9.50;;;2.27;;
8978;SDS011;4524;51.364;5.448;2022-09-09T08:55:53;7.17;;;2.20;;
8978;SDS011;4524;51.364;5.448;2022-09-09T08:58:31;7.77;;;2.30;;
8978;SDS011;4524;51.364;5.448;2022-09-09T09:01:11;6.50;;;2.20;;
8978;SDS011;4524;51.364;5.448;2022-09-09T09:04:02;7.40;;;2.30;;
8978;SDS011;4524;51.364;5.448;2022-09-09T09:06:41;7.80;;;2.20;;
8978;SDS011;4524;51.364;5.448;2022-09-09T09:09:18;9.43;;;2.03;;
8978;SDS011;4524;51.364;5.448;2022-09-09T09:11:50;5.53;;;1.93;;
8978;SDS011;4524;51.364;5.448;2022-09-09T09:14:22;6.33;;;2.20;;
8978;SDS011;4524;51.364;5.448;2022-09-09T09:16:58;8.40;;;2.33;;
8978;SDS011;4524;51.364;5.448;2022-09-09T09:19:29;6.83;;;2.00;;
8978;SDS011;4524;51.364;5.448;2022-09-09T09:22:03;6.87;;;1.90;;
8978;SDS011;4524;51.364;5.448;2022-09-09T09:24:40;6.90;;;1.97;;
8978;SDS011;4524;51.364;5.448;2022-09-09T09:27:15;6.53;;;2.00;;
8978;SDS011;4524;51.364;5.448;2022-09-09T09:29:50;4.87;;;1.90;;
8978;SDS011;4524;51.364;5.448;2022-09-09T09:32:44;10.40;;;2.23;;
8978;SDS011;4524;51.364;5.448;2022-09-09T09:35:20;5.17;;;1.90;;
8978;SDS011;4524;51.364;5.448;2022-09-09T09:37:49;5.33;;;2.20;;
8978;SDS011;4524;51.364;5.448;2022-09-09T09:40:37;6.67;;;2.10;;
8978;SDS011;4524;51.364;5.448;2022-09-09T09:43:18;9.73;;;2.10;;
8978;SDS011;4524;51.364;5.448;2022-09-09T09:45:49;9.43;;;2.10;;
8978;SDS011;4524;51.364;5.448;2022-09-09T09:48:38;5.20;;;1.90;;
8978;SDS011;4524;51.364;5.448;2022-09-09T09:51:08;6.37;;;2.30;;
8978;SDS011;4524;51.364;5.448;2022-09-09T09:53:39;5.00;;;2.03;;
8978;SDS011;4524;51.364;5.448;2022-09-09T09:56:10;6.60;;;2.10;;
8978;SDS011;4524;51.364;5.448;2022-09-09T09:58:47;6.57;;;2.20;;
8978;SDS011;4524;51.364;5.448;2022-09-09T10:01:21;6.33;;;2.30;;
8978;SDS011;4524;51.364;5.448;2022-09-09T10:03:52;5.40;;;2.00;;
8978;SDS011;4524;51.364;5.448;2022-09-09T10:06:29;5.47;;;1.70;;
8978;SDS011;4524;51.364;5.448;2022-09-09T10:09:00;10.17;;;2.33;;
8978;SDS011;4524;51.364;5.448;2022-09-09T10:11:33;6.03;;;2.13;;
8978;SDS011;4524;51.364;5.448;2022-09-09T10:14:12;6.70;;;2.17;;
8978;SDS011;4524;51.364;5.448;2022-09-09T10:16:50;9.50;;;2.40;;
8978;SDS011;4524;51.364;5.448;2022-09-09T10:19:30;8.27;;;2.17;;
8978;SDS011;4524;51.364;5.448;2022-09-09T10:22:02;4.63;;;2.07;;
8978;SDS011;4524;51.364;5.448;2022-09-09T10:24:46;7.60;;;2.30;;
8978;SDS011;4524;51.364;5.448;2022-09-09T10:27:33;9.50;;;2.30;;
8978;SDS011;4524;51.364;5.448;2022-09-09T10:30:12;6.37;;;2.53;;
8978;SDS011;4524;51.364;5.448;2022-09-09T10:32:47;7.00;;;2.40;;
8978;SDS011;4524;51.364;5.448;2022-09-09T10:35:22;7.13;;;2.33;;
8978;SDS011;4524;51.364;5.448;2022-09-09T10:38:00;6.67;;;2.60;;
8978;SDS011;4524;51.364;5.448;2022-09-09T10:40:46;3.80;;;2.07;;
8978;SDS011;4524;51.364;5.448;2022-09-09T10:43:32;7.17;;;2.27;;
8978;SDS011;4524;51.364;5.448;2022-09-09T10:46:12;6.93;;;2.17;;
8978;SDS011;4524;51.364;5.448;2022-09-09T10:48:53;9.83;;;2.80;;
8978;SDS011;4524;51.364;5.448;2022-09-09T10:51:33;5.27;;;2.40;;
8978;SDS011;4524;51.364;5.448;2022-09-09T10:54:18;5.17;;;2.20;;
8978;SDS011;4524;51.364;5.448;2022-09-09T10:57:08;6.63;;;2.40;;
8978;SDS011;4524;51.364;5.448;2022-09-09T10:59:41;4.93;;;2.10;;
8978;SDS011;4524;51.364;5.448;2022-09-09T11:02:15;7.60;;;2.13;;
8978;SDS011;4524;51.364;5.448;2022-09-09T11:04:48;5.17;;;2.23;;
8978;SDS011;4524;51.364;5.448;2022-09-09T11:07:22;3.60;;;2.20;;
8978;SDS011;4524;51.364;5.448;2022-09-09T11:09:57;6.03;;;2.07;;
8978;SDS011;4524;51.364;5.448;2022-09-09T11:12:30;4.73;;;2.03;;
8978;SDS011;4524;51.364;5.448;2022-09-09T11:15:04;5.67;;;2.00;;
8978;SDS011;4524;51.364;5.448;2022-09-09T11:17:40;5.97;;;2.00;;
8978;SDS011;4524;51.364;5.448;2022-09-09T11:20:13;3.07;;;1.70;;
8978;SDS011;4524;51.364;5.448;2022-09-09T11:22:43;4.50;;;2.20;;
8978;SDS011;4524;51.364;5.448;2022-09-09T11:25:15;4.30;;;2.17;;
8978;SDS011;4524;51.364;5.448;2022-09-09T11:27:53;3.83;;;1.87;;
8978;SDS011;4524;51.364;5.448;2022-09-09T11:30:34;4.90;;;2.10;;
8978;SDS011;4524;51.364;5.448;2022-09-09T11:33:29;4.90;;;1.90;;
8978;SDS011;4524;51.364;5.448;2022-09-09T11:36:21;3.37;;;2.10;;
8978;SDS011;4524;51.364;5.448;2022-09-09T11:39:01;4.10;;;2.00;;
8978;SDS011;4524;51.364;5.448;2022-09-09T11:41:40;4.03;;;2.00;;
8978;SDS011;4524;51.364;5.448;2022-09-09T11:44:12;5.13;;;2.00;;
8978;SDS011;4524;51.364;5.448;2022-09-09T11:46:45;3.23;;;1.70;;
8978;SDS011;4524;51.364;5.448;2022-09-09T11:49:25;5.67;;;2.10;;
8978;SDS011;4524;51.364;5.448;2022-09-09T11:51:55;3.00;;;2.00;;
8978;SDS011;4524;51.364;5.448;2022-09-09T11:54:28;5.83;;;1.90;;
8978;SDS011;4524;51.364;5.448;2022-09-09T11:56:57;4.17;;;2.00;;
8978;SDS011;4524;51.364;5.448;2022-09-09T11:59:28;3.50;;;2.20;;
8978;SDS011;4524;51.364;5.448;2022-09-09T12:01:58;6.43;;;2.33;;
8978;SDS011;4524;51.364;5.448;2022-09-09T12:04:29;7.90;;;2.40;;
8978;SDS011;4524;51.364;5.448;2022-09-09T12:07:01;9.00;;;2.50;;
8978;SDS011;4524;51.364;5.448;2022-09-09T12:09:33;3.83;;;2.10;;
8978;SDS011;4524;51.364;5.448;2022-09-09T12:12:30;9.10;;;2.40;;
8978;SDS011;4524;51.364;5.448;2022-09-09T12:15:02;4.43;;;2.20;;
8978;SDS011;4524;51.364;5.448;2022-09-09T12:17:47;8.27;;;1.80;;
8978;SDS011;4524;51.364;5.448;2022-09-09T12:20:18;3.00;;;1.80;;
8978;SDS011;4524;51.364;5.448;2022-09-09T12:22:51;3.13;;;2.00;;
8978;SDS011;4524;51.364;5.448;2022-09-09T12:25:31;5.23;;;2.07;;
8978;SDS011;4524;51.364;5.448;2022-09-09T12:28:16;3.37;;;1.80;;
8978;SDS011;4524;51.364;5.448;2022-09-09T12:30:49;5.63;;;2.00;;
8978;SDS011;4524;51.364;5.448;2022-09-09T12:33:24;5.13;;;2.20;;
8978;SDS011;4524;51.364;5.448;2022-09-09T12:35:53;4.83;;;2.13;;
8978;SDS011;4524;51.364;5.448;2022-09-09T12:38:26;4.07;;;1.80;;
8978;SDS011;4524;51.364;5.448;2022-09-09T12:40:58;6.27;;;2.00;;
8978;SDS011;4524;51.364;5.448;2022-09-09T12:43:27;5.20;;;1.90;;
8978;SDS011;4524;51.364;5.448;2022-09-09T12:45:57;4.17;;;1.97;;
8978;SDS011;4524;51.364;5.448;2022-09-09T12:48:30;4.93;;;1.87;;
8978;SDS011;4524;51.364;5.448;2022-09-09T12:51:03;4.47;;;1.83;;
8978;SDS011;4524;51.364;5.448;2022-09-09T12:53:45;3.90;;;1.60;;
8978;SDS011;4524;51.364;5.448;2022-09-09T12:56:18;3.67;;;1.60;;
8978;SDS011;4524;51.364;5.448;2022-09-09T12:58:47;4.23;;;1.80;;
8978;SDS011;4524;51.364;5.448;2022-09-09T13:01:21;4.77;;;1.70;;
8978;SDS011;4524;51.364;5.448;2022-09-09T13:03:51;4.87;;;1.77;;
8978;SDS011;4524;51.364;5.448;2022-09-09T13:06:20;4.77;;;1.73;;
8978;SDS011;4524;51.364;5.448;2022-09-09T13:08:54;4.93;;;1.90;;
8978;SDS011;4524;51.364;5.448;2022-09-09T13:11:25;3.40;;;1.67;;
8978;SDS011;4524;51.364;5.448;2022-09-09T13:13:56;5.37;;;1.80;;
8978;SDS011;4524;51.364;5.448;2022-09-09T13:16:27;3.30;;;1.70;;
8978;SDS011;4524;51.364;5.448;2022-09-09T13:18:58;4.07;;;1.50;;
8978;SDS011;4524;51.364;5.448;2022-09-09T13:21:31;4.63;;;1.50;;
8978;SDS011;4524;51.364;5.448;2022-09-09T13:24:01;4.23;;;1.70;;
8978;SDS011;4524;51.364;5.448;2022-09-09T13:26:30;4.43;;;1.60;;
8978;SDS011;4524;51.364;5.448;2022-09-09T13:29:07;3.73;;;1.47;;
8978;SDS011;4524;51.364;5.448;2022-09-09T13:31:46;4.57;;;1.77;;
8978;SDS011;4524;51.364;5.448;2022-09-09T13:34:25;4.13;;;1.70;;
8978;SDS011;4524;51.364;5.448;2022-09-09T13:36:55;3.27;;;1.40;;
8978;SDS011;4524;51.364;5.448;2022-09-09T13:39:27;4.03;;;1.63;;
8978;SDS011;4524;51.364;5.448;2022-09-09T13:41:56;2.73;;;1.30;;
8978;SDS011;4524;51.364;5.448;2022-09-09T13:44:43;3.80;;;1.57;;
8978;SDS011;4524;51.364;5.448;2022-09-09T13:47:18;4.77;;;1.40;;
8978;SDS011;4524;51.364;5.448;2022-09-09T13:49:49;4.67;;;1.67;;
8978;SDS011;4524;51.364;5.448;2022-09-09T13:52:17;4.47;;;1.43;;
8978;SDS011;4524;51.364;5.448;2022-09-09T13:54:47;4.30;;;1.50;;
8978;SDS011;4524;51.364;5.448;2022-09-09T13:57:17;3.83;;;1.30;;
8978;SDS011;4524;51.364;5.448;2022-09-09T13:59:47;4.37;;;1.50;;
8978;SDS011;4524;51.364;5.448;2022-09-09T14:02:33;3.43;;;1.53;;
8978;SDS011;4524;51.364;5.448;2022-09-09T14:05:01;5.70;;;1.60;;
8978;SDS011;4524;51.364;5.448;2022-09-09T14:07:29;2.70;;;1.40;;
8978;SDS011;4524;51.364;5.448;2022-09-09T14:09:58;3.57;;;1.40;;
8978;SDS011;4524;51.364;5.448;2022-09-09T14:12:26;4.23;;;1.57;;
8978;SDS011;4524;51.364;5.448;2022-09-09T14:14:54;3.67;;;1.50;;
8978;SDS011;4524;51.364;5.448;2022-09-09T14:17:22;6.47;;;1.53;;
8978;SDS011;4524;51.364;5.448;2022-09-09T14:19:52;3.07;;;1.53;;
8978;SDS011;4524;51.364;5.448;2022-09-09T14:22:20;5.03;;;1.60;;
8978;SDS011;4524;51.364;5.448;2022-09-09T14:24:48;4.53;;;1.57;;
8978;SDS011;4524;51.364;5.448;2022-09-09T14:27:16;2.70;;;1.57;;
8978;SDS011;4524;51.364;5.448;2022-09-09T14:29:45;3.90;;;1.90;;
8978;SDS011;4524;51.364;5.448;2022-09-09T14:32:12;3.20;;;1.83;;
8978;SDS011;4524;51.364;5.448;2022-09-09T14:34:40;5.23;;;1.73;;
8978;SDS011;4524;51.364;5.448;2022-09-09T14:37:09;3.13;;;1.70;;
8978;SDS011;4524;51.364;5.448;2022-09-09T14:39:37;2.33;;;1.30;;
8978;SDS011;4524;51.364;5.448;2022-09-09T14:42:05;3.43;;;1.70;;
8978;SDS011;4524;51.364;5.448;2022-09-09T14:44:34;3.13;;;1.50;;
8978;SDS011;4524;51.364;5.448;2022-09-09T14:47:03;3.40;;;1.20;;
8978;SDS011;4524;51.364;5.448;2022-09-09T14:49:32;3.10;;;1.37;;
8978;SDS011;4524;51.364;5.448;2022-09-09T14:52:00;4.07;;;1.27;;
8978;SDS011;4524;51.364;5.448;2022-09-09T14:54:29;3.27;;;1.30;;
8978;SDS011;4524;51.364;5.448;2022-09-09T14:56:58;3.00;;;1.20;;
8978;SDS011;4524;51.364;5.448;2022-09-09T14:59:26;3.00;;;1.20;;
8978;SDS011;4524;51.364;5.448;2022-09-09T15:01:54;1.73;;;1.30;;
8978;SDS011;4524;51.364;5.448;2022-09-09T15:04:22;2.97;;;1.30;;
8978;SDS011;4524;51.364;5.448;2022-09-09T15:06:50;3.07;;;1.40;;
8978;SDS011;4524;51.364;5.448;2022-09-09T15:09:19;3.17;;;1.40;;
8978;SDS011;4524;51.364;5.448;2022-09-09T15:11:48;3.57;;;1.53;;
8978;SDS011;4524;51.364;5.448;2022-09-09T15:14:16;3.03;;;1.60;;
8978;SDS011;4524;51.364;5.448;2022-09-09T15:16:50;2.87;;;1.40;;
8978;SDS011;4524;51.364;5.448;2022-09-09T15:19:18;2.63;;;1.50;;
8978;SDS011;4524;51.364;5.448;2022-09-09T15:21:46;4.53;;;1.70;;
8978;SDS011;4524;51.364;5.448;2022-09-09T15:24:15;3.57;;;1.77;;
8978;SDS011;4524;51.364;5.448;2022-09-09T15:26:43;5.03;;;1.80;;
8978;SDS011;4524;51.364;5.448;2022-09-09T15:29:12;4.73;;;1.77;;
8978;SDS011;4524;51.364;5.448;2022-09-09T15:31:40;3.80;;;1.67;;
8978;SDS011;4524;51.364;5.448;2022-09-09T15:34:08;3.10;;;1.60;;
8978;SDS011;4524;51.364;5.448;2022-09-09T15:36:36;2.73;;;1.67;;
8978;SDS011;4524;51.364;5.448;2022-09-09T15:39:06;4.20;;;1.90;;
8978;SDS011;4524;51.364;5.448;2022-09-09T15:41:35;4.73;;;1.60;;
8978;SDS011;4524;51.364;5.448;2022-09-09T15:44:03;4.30;;;1.73;;
8978;SDS011;4524;51.364;5.448;2022-09-09T15:46:34;4.90;;;1.87;;
8978;SDS011;4524;51.364;5.448;2022-09-09T15:49:05;4.27;;;1.50;;
8978;SDS011;4524;51.364;5.448;2022-09-09T15:51:35;4.47;;;1.60;;
8978;SDS011;4524;51.364;5.448;2022-09-09T15:54:10;3.47;;;1.60;;